sensor_id;sensor_type;location;lat;lon;timestamp;P1;durP1;ratioP1;P2;durP2;ratioP2
65469;SDS011;52067;50.710;14.492;2023-05-07T00:00:59;21.85;;;19.15;;
65469;SDS011;52067;50.710;14.492;2023-05-07T00:03:25;13.60;;;8.82;;
65469;SDS011;52067;50.710;14.492;2023-05-07T00:05:51;9.85;;;7.97;;
65469;SDS011;52067;50.710;14.492;2023-05-07T00:08:18;22.25;;;18.35;;
65469;SDS011;52067;50.710;14.492;2023-05-07T00:10:44;12.55;;;9.45;;
65469;SDS011;52067;50.710;14.492;2023-05-07T00:13:09;14.98;;;11.98;;
65469;SDS011;52067;50.710;14.492;2023-05-07T00:15:35;18.08;;;16.13;;
65469;SDS011;52067;50.710;14.492;2023-05-07T00:18:00;12.60;;;10.40;;
65469;SDS011;52067;50.710;14.492;2023-05-07T00:20:26;11.70;;;8.52;;
65469;SDS011;52067;50.710;14.492;2023-05-07T00:22:51;12.45;;;8.98;;
65469;SDS011;52067;50.710;14.492;2023-05-07T00:25:17;12.30;;;8.75;;
65469;SDS011;52067;50.710;14.492;2023-05-07T00:27:44;16.10;;;14.40;;
65469;SDS011;52067;50.710;14.492;2023-05-07T00:30:10;9.77;;;5.60;;
65469;SDS011;52067;50.710;14.492;2023-05-07T00:32:36;9.00;;;4.55;;
65469;SDS011;52067;50.710;14.492;2023-05-07T00:35:01;7.10;;;4.68;;
65469;SDS011;52067;50.710;14.492;2023-05-07T00:37:27;7.93;;;5.05;;
65469;SDS011;52067;50.710;14.492;2023-05-07T00:39:53;7.75;;;5.10;;
65469;SDS011;52067;50.710;14.492;2023-05-07T00:42:18;13.50;;;11.20;;
65469;SDS011;52067;50.710;14.492;2023-05-07T00:44:44;10.85;;;7.85;;
65469;SDS011;52067;50.710;14.492;2023-05-07T00:47:09;12.68;;;10.15;;
65469;SDS011;52067;50.710;14.492;2023-05-07T00:49:37;8.70;;;5.55;;
65469;SDS011;52067;50.710;14.492;2023-05-07T00:52:09;9.43;;;6.07;;
65469;SDS011;52067;50.710;14.492;2023-05-07T00:54:44;9.15;;;6.57;;
65469;SDS011;52067;50.710;14.492;2023-05-07T00:57:10;10.32;;;7.50;;
65469;SDS011;52067;50.710;14.492;2023-05-07T00:59:38;10.68;;;7.15;;
65469;SDS011;52067;50.710;14.492;2023-05-07T01:02:05;12.50;;;8.15;;
65469;SDS011;52067;50.710;14.492;2023-05-07T01:04:31;11.02;;;7.55;;
65469;SDS011;52067;50.710;14.492;2023-05-07T01:06:57;13.23;;;9.55;;
65469;SDS011;52067;50.710;14.492;2023-05-07T01:09:24;9.98;;;6.97;;
65469;SDS011;52067;50.710;14.492;2023-05-07T01:11:50;12.70;;;9.23;;
65469;SDS011;52067;50.710;14.492;2023-05-07T01:14:16;13.02;;;8.82;;
65469;SDS011;52067;50.710;14.492;2023-05-07T01:16:42;18.60;;;8.88;;
65469;SDS011;52067;50.710;14.492;2023-05-07T01:19:08;14.45;;;10.68;;
65469;SDS011;52067;50.710;14.492;2023-05-07T01:21:36;16.48;;;10.05;;
65469;SDS011;52067;50.710;14.492;2023-05-07T01:24:03;11.45;;;7.53;;
65469;SDS011;52067;50.710;14.492;2023-05-07T01:26:30;10.05;;;6.50;;
65469;SDS011;52067;50.710;14.492;2023-05-07T01:28:55;13.38;;;7.05;;
65469;SDS011;52067;50.710;14.492;2023-05-07T01:31:21;10.27;;;6.80;;
65469;SDS011;52067;50.710;14.492;2023-05-07T01:33:48;10.00;;;6.38;;
65469;SDS011;52067;50.710;14.492;2023-05-07T01:36:15;8.75;;;5.18;;
65469;SDS011;52067;50.710;14.492;2023-05-07T01:38:43;6.32;;;4.30;;
65469;SDS011;52067;50.710;14.492;2023-05-07T01:41:08;7.45;;;4.85;;
65469;SDS011;52067;50.710;14.492;2023-05-07T01:43:34;6.78;;;3.88;;
65469;SDS011;52067;50.710;14.492;2023-05-07T01:46:00;7.88;;;4.38;;
65469;SDS011;52067;50.710;14.492;2023-05-07T01:48:27;13.02;;;5.15;;
65469;SDS011;52067;50.710;14.492;2023-05-07T01:50:53;9.48;;;5.20;;
65469;SDS011;52067;50.710;14.492;2023-05-07T01:53:19;9.30;;;5.38;;
65469;SDS011;52067;50.710;14.492;2023-05-07T01:55:44;8.20;;;4.80;;
65469;SDS011;52067;50.710;14.492;2023-05-07T01:58:10;8.27;;;4.30;;
65469;SDS011;52067;50.710;14.492;2023-05-07T02:00:35;5.75;;;4.20;;
65469;SDS011;52067;50.710;14.492;2023-05-07T02:03:01;8.43;;;4.95;;
65469;SDS011;52067;50.710;14.492;2023-05-07T02:05:26;6.55;;;4.70;;
65469;SDS011;52067;50.710;14.492;2023-05-07T02:07:52;7.40;;;4.40;;
65469;SDS011;52067;50.710;14.492;2023-05-07T02:10:17;8.18;;;4.68;;
65469;SDS011;52067;50.710;14.492;2023-05-07T02:12:43;7.85;;;4.57;;
65469;SDS011;52067;50.710;14.492;2023-05-07T02:15:08;7.25;;;4.30;;
65469;SDS011;52067;50.710;14.492;2023-05-07T02:17:34;7.15;;;3.85;;
65469;SDS011;52067;50.710;14.492;2023-05-07T02:20:00;6.07;;;4.05;;
65469;SDS011;52067;50.710;14.492;2023-05-07T02:22:25;8.23;;;4.68;;
65469;SDS011;52067;50.710;14.492;2023-05-07T02:24:51;8.13;;;4.90;;
65469;SDS011;52067;50.710;14.492;2023-05-07T02:27:16;7.70;;;4.00;;
65469;SDS011;52067;50.710;14.492;2023-05-07T02:29:42;7.53;;;4.63;;
65469;SDS011;52067;50.710;14.492;2023-05-07T02:32:07;5.93;;;3.88;;
65469;SDS011;52067;50.710;14.492;2023-05-07T02:34:32;7.18;;;4.35;;
65469;SDS011;52067;50.710;14.492;2023-05-07T02:36:58;6.60;;;4.35;;
65469;SDS011;52067;50.710;14.492;2023-05-07T02:39:23;6.50;;;4.07;;
65469;SDS011;52067;50.710;14.492;2023-05-07T02:41:49;6.72;;;4.22;;
65469;SDS011;52067;50.710;14.492;2023-05-07T02:44:14;8.60;;;4.75;;
65469;SDS011;52067;50.710;14.492;2023-05-07T02:46:39;6.35;;;4.00;;
65469;SDS011;52067;50.710;14.492;2023-05-07T02:49:05;6.70;;;4.15;;
65469;SDS011;52067;50.710;14.492;2023-05-07T02:51:31;7.18;;;4.28;;
65469;SDS011;52067;50.710;14.492;2023-05-07T02:53:56;8.82;;;4.30;;
65469;SDS011;52067;50.710;14.492;2023-05-07T02:56:21;6.50;;;4.10;;
65469;SDS011;52067;50.710;14.492;2023-05-07T02:58:47;6.75;;;4.25;;
65469;SDS011;52067;50.710;14.492;2023-05-07T03:01:12;6.53;;;3.97;;
65469;SDS011;52067;50.710;14.492;2023-05-07T03:03:39;8.20;;;4.43;;
65469;SDS011;52067;50.710;14.492;2023-05-07T03:06:05;6.90;;;3.90;;
65469;SDS011;52067;50.710;14.492;2023-05-07T03:08:31;6.93;;;4.25;;
65469;SDS011;52067;50.710;14.492;2023-05-07T03:10:57;7.28;;;4.30;;
65469;SDS011;52067;50.710;14.492;2023-05-07T03:13:22;7.20;;;4.40;;
65469;SDS011;52067;50.710;14.492;2023-05-07T03:15:48;6.40;;;4.00;;
65469;SDS011;52067;50.710;14.492;2023-05-07T03:18:13;8.40;;;4.85;;
65469;SDS011;52067;50.710;14.492;2023-05-07T03:20:38;8.77;;;5.32;;
65469;SDS011;52067;50.710;14.492;2023-05-07T03:23:04;6.68;;;4.50;;
65469;SDS011;52067;50.710;14.492;2023-05-07T03:25:30;7.68;;;4.93;;
65469;SDS011;52067;50.710;14.492;2023-05-07T03:27:55;8.95;;;5.57;;
65469;SDS011;52067;50.710;14.492;2023-05-07T03:30:21;8.93;;;5.20;;
65469;SDS011;52067;50.710;14.492;2023-05-07T03:32:47;7.90;;;4.60;;
65469;SDS011;52067;50.710;14.492;2023-05-07T03:35:13;9.63;;;5.63;;
65469;SDS011;52067;50.710;14.492;2023-05-07T03:37:38;9.30;;;4.60;;
65469;SDS011;52067;50.710;14.492;2023-05-07T03:40:04;7.07;;;4.20;;
65469;SDS011;52067;50.710;14.492;2023-05-07T03:42:30;9.18;;;4.57;;
65469;SDS011;52067;50.710;14.492;2023-05-07T03:44:55;8.00;;;4.18;;
65469;SDS011;52067;50.710;14.492;2023-05-07T03:47:21;7.72;;;4.18;;
65469;SDS011;52067;50.710;14.492;2023-05-07T03:49:46;8.57;;;4.28;;
65469;SDS011;52067;50.710;14.492;2023-05-07T03:52:13;6.82;;;4.25;;
65469;SDS011;52067;50.710;14.492;2023-05-07T03:54:38;7.45;;;4.10;;
65469;SDS011;52067;50.710;14.492;2023-05-07T03:57:04;6.18;;;3.72;;
65469;SDS011;52067;50.710;14.492;2023-05-07T03:59:29;6.55;;;3.55;;
65469;SDS011;52067;50.710;14.492;2023-05-07T04:01:54;9.60;;;4.40;;
65469;SDS011;52067;50.710;14.492;2023-05-07T04:04:20;6.93;;;4.45;;
65469;SDS011;52067;50.710;14.492;2023-05-07T04:06:46;7.93;;;4.70;;
65469;SDS011;52067;50.710;14.492;2023-05-07T04:09:11;7.82;;;4.35;;
65469;SDS011;52067;50.710;14.492;2023-05-07T04:11:37;7.45;;;4.50;;
65469;SDS011;52067;50.710;14.492;2023-05-07T04:14:02;8.77;;;4.38;;
65469;SDS011;52067;50.710;14.492;2023-05-07T04:16:27;8.65;;;5.00;;
65469;SDS011;52067;50.710;14.492;2023-05-07T04:18:53;9.93;;;4.72;;
65469;SDS011;52067;50.710;14.492;2023-05-07T04:21:19;8.40;;;5.57;;
65469;SDS011;52067;50.710;14.492;2023-05-07T04:23:48;8.18;;;5.13;;
65469;SDS011;52067;50.710;14.492;2023-05-07T04:26:14;9.45;;;5.32;;
65469;SDS011;52067;50.710;14.492;2023-05-07T04:28:41;9.07;;;5.28;;
65469;SDS011;52067;50.710;14.492;2023-05-07T04:31:06;8.20;;;4.88;;
65469;SDS011;52067;50.710;14.492;2023-05-07T04:33:32;9.15;;;5.20;;
65469;SDS011;52067;50.710;14.492;2023-05-07T04:35:58;11.27;;;5.40;;
65469;SDS011;52067;50.710;14.492;2023-05-07T04:38:27;11.07;;;6.53;;
65469;SDS011;52067;50.710;14.492;2023-05-07T04:41:06;10.15;;;5.65;;
65469;SDS011;52067;50.710;14.492;2023-05-07T04:43:31;11.70;;;7.35;;
65469;SDS011;52067;50.710;14.492;2023-05-07T04:45:57;12.82;;;7.15;;
65469;SDS011;52067;50.710;14.492;2023-05-07T04:48:22;11.40;;;6.65;;
65469;SDS011;52067;50.710;14.492;2023-05-07T04:50:48;12.40;;;7.85;;
65469;SDS011;52067;50.710;14.492;2023-05-07T04:53:14;14.85;;;8.40;;
65469;SDS011;52067;50.710;14.492;2023-05-07T04:55:40;12.52;;;8.15;;
65469;SDS011;52067;50.710;14.492;2023-05-07T04:58:05;11.43;;;6.28;;
65469;SDS011;52067;50.710;14.492;2023-05-07T05:00:31;10.90;;;6.80;;
65469;SDS011;52067;50.710;14.492;2023-05-07T05:02:56;11.32;;;5.88;;
65469;SDS011;52067;50.710;14.492;2023-05-07T05:05:21;8.55;;;5.35;;
65469;SDS011;52067;50.710;14.492;2023-05-07T05:07:47;11.05;;;6.07;;
65469;SDS011;52067;50.710;14.492;2023-05-07T05:10:12;9.32;;;5.38;;
65469;SDS011;52067;50.710;14.492;2023-05-07T05:12:38;9.88;;;5.60;;
65469;SDS011;52067;50.710;14.492;2023-05-07T05:15:04;11.68;;;5.80;;
65469;SDS011;52067;50.710;14.492;2023-05-07T05:17:30;10.27;;;6.28;;
65469;SDS011;52067;50.710;14.492;2023-05-07T05:19:55;10.57;;;5.40;;
65469;SDS011;52067;50.710;14.492;2023-05-07T05:22:21;9.27;;;6.25;;
65469;SDS011;52067;50.710;14.492;2023-05-07T05:24:46;11.27;;;6.63;;
65469;SDS011;52067;50.710;14.492;2023-05-07T05:27:12;11.38;;;6.38;;
65469;SDS011;52067;50.710;14.492;2023-05-07T05:29:37;10.18;;;5.50;;
65469;SDS011;52067;50.710;14.492;2023-05-07T05:32:02;11.93;;;6.65;;
65469;SDS011;52067;50.710;14.492;2023-05-07T05:34:28;9.77;;;5.38;;
65469;SDS011;52067;50.710;14.492;2023-05-07T05:36:53;6.53;;;4.40;;
65469;SDS011;52067;50.710;14.492;2023-05-07T05:39:18;8.95;;;5.70;;
65469;SDS011;52067;50.710;14.492;2023-05-07T05:41:44;8.32;;;4.93;;
65469;SDS011;52067;50.710;14.492;2023-05-07T05:44:09;10.40;;;5.35;;
65469;SDS011;52067;50.710;14.492;2023-05-07T05:46:35;10.77;;;6.85;;
65469;SDS011;52067;50.710;14.492;2023-05-07T05:49:00;8.48;;;4.45;;
65469;SDS011;52067;50.710;14.492;2023-05-07T05:51:26;9.60;;;5.90;;
65469;SDS011;52067;50.710;14.492;2023-05-07T05:53:51;9.93;;;6.43;;
65469;SDS011;52067;50.710;14.492;2023-05-07T05:56:16;9.32;;;6.05;;
65469;SDS011;52067;50.710;14.492;2023-05-07T05:58:42;9.80;;;5.55;;
65469;SDS011;52067;50.710;14.492;2023-05-07T06:01:07;8.80;;;5.20;;
65469;SDS011;52067;50.710;14.492;2023-05-07T06:03:33;8.02;;;5.03;;
65469;SDS011;52067;50.710;14.492;2023-05-07T06:05:58;10.27;;;5.65;;
65469;SDS011;52067;50.710;14.492;2023-05-07T06:08:25;11.05;;;5.88;;
65469;SDS011;52067;50.710;14.492;2023-05-07T06:10:50;10.52;;;6.32;;
65469;SDS011;52067;50.710;14.492;2023-05-07T06:13:16;9.68;;;6.50;;
65469;SDS011;52067;50.710;14.492;2023-05-07T06:15:41;9.80;;;5.63;;
65469;SDS011;52067;50.710;14.492;2023-05-07T06:18:07;9.73;;;6.38;;
65469;SDS011;52067;50.710;14.492;2023-05-07T06:20:33;9.13;;;5.93;;
65469;SDS011;52067;50.710;14.492;2023-05-07T06:22:59;15.48;;;8.05;;
65469;SDS011;52067;50.710;14.492;2023-05-07T06:25:24;11.88;;;7.18;;
65469;SDS011;52067;50.710;14.492;2023-05-07T06:27:50;11.75;;;6.95;;
65469;SDS011;52067;50.710;14.492;2023-05-07T06:30:15;9.60;;;6.30;;
65469;SDS011;52067;50.710;14.492;2023-05-07T06:32:41;12.20;;;7.47;;
65469;SDS011;52067;50.710;14.492;2023-05-07T06:35:06;6.70;;;3.90;;
65469;SDS011;52067;50.710;14.492;2023-05-07T06:37:32;6.90;;;4.72;;
65469;SDS011;52067;50.710;14.492;2023-05-07T06:39:57;7.07;;;3.88;;
65469;SDS011;52067;50.710;14.492;2023-05-07T06:42:23;6.68;;;4.80;;
65469;SDS011;52067;50.710;14.492;2023-05-07T06:44:48;8.48;;;5.57;;
65469;SDS011;52067;50.710;14.492;2023-05-07T06:47:13;7.70;;;5.32;;
65469;SDS011;52067;50.710;14.492;2023-05-07T06:49:39;8.02;;;5.10;;
65469;SDS011;52067;50.710;14.492;2023-05-07T06:52:04;6.68;;;4.25;;
65469;SDS011;52067;50.710;14.492;2023-05-07T06:54:30;7.82;;;3.97;;
65469;SDS011;52067;50.710;14.492;2023-05-07T06:56:55;7.53;;;4.03;;
65469;SDS011;52067;50.710;14.492;2023-05-07T06:59:20;8.95;;;5.97;;
65469;SDS011;52067;50.710;14.492;2023-05-07T07:01:46;7.30;;;5.03;;
65469;SDS011;52067;50.710;14.492;2023-05-07T07:04:11;6.40;;;4.57;;
65469;SDS011;52067;50.710;14.492;2023-05-07T07:06:37;8.00;;;5.10;;
65469;SDS011;52067;50.710;14.492;2023-05-07T07:09:02;8.70;;;5.13;;
65469;SDS011;52067;50.710;14.492;2023-05-07T07:11:27;5.97;;;4.47;;
65469;SDS011;52067;50.710;14.492;2023-05-07T07:13:53;8.70;;;5.22;;
65469;SDS011;52067;50.710;14.492;2023-05-07T07:16:19;8.15;;;5.00;;
65469;SDS011;52067;50.710;14.492;2023-05-07T07:18:45;6.25;;;4.57;;
65469;SDS011;52067;50.710;14.492;2023-05-07T07:21:11;6.32;;;3.88;;
65469;SDS011;52067;50.710;14.492;2023-05-07T07:23:36;5.50;;;3.78;;
65469;SDS011;52067;50.710;14.492;2023-05-07T07:26:02;5.10;;;3.75;;
65469;SDS011;52067;50.710;14.492;2023-05-07T07:28:27;5.72;;;3.90;;
65469;SDS011;52067;50.710;14.492;2023-05-07T07:30:53;6.38;;;3.72;;
65469;SDS011;52067;50.710;14.492;2023-05-07T07:33:18;4.35;;;3.13;;
65469;SDS011;52067;50.710;14.492;2023-05-07T07:35:43;5.38;;;3.00;;
65469;SDS011;52067;50.710;14.492;2023-05-07T07:38:09;3.47;;;2.60;;
65469;SDS011;52067;50.710;14.492;2023-05-07T07:40:34;4.55;;;2.70;;
65469;SDS011;52067;50.710;14.492;2023-05-07T07:43:00;4.80;;;2.85;;
65469;SDS011;52067;50.710;14.492;2023-05-07T07:45:26;3.70;;;2.50;;
65469;SDS011;52067;50.710;14.492;2023-05-07T07:47:51;5.13;;;2.90;;
65469;SDS011;52067;50.710;14.492;2023-05-07T07:50:17;5.05;;;2.67;;
65469;SDS011;52067;50.710;14.492;2023-05-07T07:52:43;4.20;;;2.80;;
65469;SDS011;52067;50.710;14.492;2023-05-07T07:55:08;2.88;;;1.98;;
65469;SDS011;52067;50.710;14.492;2023-05-07T07:57:34;6.50;;;4.20;;
65469;SDS011;52067;50.710;14.492;2023-05-07T07:59:59;5.38;;;2.97;;
65469;SDS011;52067;50.710;14.492;2023-05-07T08:02:25;4.47;;;3.20;;
65469;SDS011;52067;50.710;14.492;2023-05-07T08:04:51;4.20;;;3.50;;
65469;SDS011;52067;50.710;14.492;2023-05-07T08:07:16;4.60;;;3.38;;
65469;SDS011;52067;50.710;14.492;2023-05-07T08:09:45;3.92;;;3.00;;
65469;SDS011;52067;50.710;14.492;2023-05-07T08:12:11;6.85;;;4.22;;
65469;SDS011;52067;50.710;14.492;2023-05-07T08:14:36;6.85;;;4.07;;
65469;SDS011;52067;50.710;14.492;2023-05-07T08:17:02;6.45;;;4.43;;
65469;SDS011;52067;50.710;14.492;2023-05-07T08:19:27;6.05;;;3.92;;
65469;SDS011;52067;50.710;14.492;2023-05-07T08:21:53;5.07;;;3.83;;
65469;SDS011;52067;50.710;14.492;2023-05-07T08:24:18;6.10;;;4.43;;
65469;SDS011;52067;50.710;14.492;2023-05-07T08:26:44;6.10;;;4.50;;
65469;SDS011;52067;50.710;14.492;2023-05-07T08:29:10;6.43;;;4.97;;
65469;SDS011;52067;50.710;14.492;2023-05-07T08:31:35;7.25;;;5.53;;
65469;SDS011;52067;50.710;14.492;2023-05-07T08:34:01;6.95;;;4.25;;
65469;SDS011;52067;50.710;14.492;2023-05-07T08:36:26;7.00;;;3.90;;
65469;SDS011;52067;50.710;14.492;2023-05-07T08:38:52;7.85;;;6.80;;
65469;SDS011;52067;50.710;14.492;2023-05-07T08:41:18;6.20;;;4.70;;
65469;SDS011;52067;50.710;14.492;2023-05-07T08:43:46;4.93;;;3.85;;
65469;SDS011;52067;50.710;14.492;2023-05-07T08:46:13;6.03;;;4.10;;
65469;SDS011;52067;50.710;14.492;2023-05-07T08:48:44;5.68;;;4.75;;
65469;SDS011;52067;50.710;14.492;2023-05-07T08:51:13;6.82;;;5.10;;
65469;SDS011;52067;50.710;14.492;2023-05-07T08:53:40;6.95;;;4.68;;
65469;SDS011;52067;50.710;14.492;2023-05-07T08:56:07;8.48;;;4.10;;
65469;SDS011;52067;50.710;14.492;2023-05-07T08:58:33;4.90;;;4.10;;
65469;SDS011;52067;50.710;14.492;2023-05-07T09:00:59;5.53;;;4.50;;
65469;SDS011;52067;50.710;14.492;2023-05-07T09:03:30;7.40;;;5.50;;
65469;SDS011;52067;50.710;14.492;2023-05-07T09:05:56;6.82;;;4.95;;
65469;SDS011;52067;50.710;14.492;2023-05-07T09:08:24;9.38;;;7.72;;
65469;SDS011;52067;50.710;14.492;2023-05-07T09:10:51;6.03;;;4.57;;
65469;SDS011;52067;50.710;14.492;2023-05-07T09:13:17;5.93;;;4.45;;
65469;SDS011;52067;50.710;14.492;2023-05-07T09:15:43;7.40;;;5.90;;
65469;SDS011;52067;50.710;14.492;2023-05-07T09:18:08;5.90;;;4.30;;
65469;SDS011;52067;50.710;14.492;2023-05-07T09:20:36;5.38;;;4.18;;
65469;SDS011;52067;50.710;14.492;2023-05-07T09:23:01;5.90;;;4.32;;
65469;SDS011;52067;50.710;14.492;2023-05-07T09:25:27;10.15;;;5.72;;
65469;SDS011;52067;50.710;14.492;2023-05-07T09:27:54;9.63;;;5.53;;
65469;SDS011;52067;50.710;14.492;2023-05-07T09:30:20;7.60;;;5.70;;
65469;SDS011;52067;50.710;14.492;2023-05-07T09:32:45;8.13;;;4.00;;
65469;SDS011;52067;50.710;14.492;2023-05-07T09:35:14;6.60;;;4.18;;
65469;SDS011;52067;50.710;14.492;2023-05-07T09:37:41;6.30;;;3.83;;
65469;SDS011;52067;50.710;14.492;2023-05-07T09:40:07;6.30;;;4.07;;
65469;SDS011;52067;50.710;14.492;2023-05-07T09:42:34;6.53;;;4.15;;
65469;SDS011;52067;50.710;14.492;2023-05-07T09:44:59;5.57;;;3.83;;
65469;SDS011;52067;50.710;14.492;2023-05-07T09:47:25;6.68;;;3.45;;
65469;SDS011;52067;50.710;14.492;2023-05-07T09:49:55;5.55;;;3.70;;
65469;SDS011;52067;50.710;14.492;2023-05-07T09:52:22;4.93;;;3.83;;
65469;SDS011;52067;50.710;14.492;2023-05-07T09:54:48;4.43;;;3.47;;
65469;SDS011;52067;50.710;14.492;2023-05-07T09:57:15;9.43;;;4.47;;
65469;SDS011;52067;50.710;14.492;2023-05-07T09:59:42;6.35;;;4.20;;
65469;SDS011;52067;50.710;14.492;2023-05-07T10:02:08;8.70;;;4.28;;
65469;SDS011;52067;50.710;14.492;2023-05-07T10:04:35;6.10;;;3.97;;
65469;SDS011;52067;50.710;14.492;2023-05-07T10:07:00;5.45;;;3.75;;
65469;SDS011;52067;50.710;14.492;2023-05-07T10:09:27;7.15;;;4.20;;
65469;SDS011;52067;50.710;14.492;2023-05-07T10:11:53;5.50;;;3.67;;
65469;SDS011;52067;50.710;14.492;2023-05-07T10:14:20;6.05;;;4.22;;
65469;SDS011;52067;50.710;14.492;2023-05-07T10:16:46;5.00;;;3.55;;
65469;SDS011;52067;50.710;14.492;2023-05-07T10:19:12;5.75;;;3.15;;
65469;SDS011;52067;50.710;14.492;2023-05-07T10:21:42;4.75;;;3.78;;
65469;SDS011;52067;50.710;14.492;2023-05-07T10:24:14;5.95;;;3.83;;
65469;SDS011;52067;50.710;14.492;2023-05-07T10:26:45;8.60;;;4.60;;
65469;SDS011;52067;50.710;14.492;2023-05-07T10:29:56;5.65;;;3.50;;
65469;SDS011;52067;50.710;14.492;2023-05-07T10:34:46;4.35;;;3.20;;
65469;SDS011;52067;50.710;14.492;2023-05-07T10:37:13;5.97;;;3.78;;
65469;SDS011;52067;50.710;14.492;2023-05-07T10:39:40;5.22;;;3.78;;
65469;SDS011;52067;50.710;14.492;2023-05-07T10:42:12;5.40;;;3.47;;
65469;SDS011;52067;50.710;14.492;2023-05-07T10:44:38;6.07;;;3.85;;
65469;SDS011;52067;50.710;14.492;2023-05-07T10:49:29;6.30;;;4.30;;
65469;SDS011;52067;50.710;14.492;2023-05-07T10:52:11;5.35;;;3.70;;
65469;SDS011;52067;50.710;14.492;2023-05-07T10:54:38;5.78;;;3.95;;
65469;SDS011;52067;50.710;14.492;2023-05-07T10:57:49;5.55;;;4.00;;
65469;SDS011;52067;50.710;14.492;2023-05-07T11:00:00;7.38;;;4.50;;
65469;SDS011;52067;50.710;14.492;2023-05-07T11:05:25;9.07;;;5.35;;
65469;SDS011;52067;50.710;14.492;2023-05-07T11:07:55;10.40;;;6.68;;
65469;SDS011;52067;50.710;14.492;2023-05-07T11:10:22;8.88;;;6.03;;
65469;SDS011;52067;50.710;14.492;2023-05-07T11:12:48;7.60;;;5.57;;
65469;SDS011;52067;50.710;14.492;2023-05-07T11:15:32;7.22;;;4.97;;
65469;SDS011;52067;50.710;14.492;2023-05-07T11:18:06;7.97;;;4.80;;
65469;SDS011;52067;50.710;14.492;2023-05-07T11:26:09;10.57;;;6.80;;
65469;SDS011;52067;50.710;14.492;2023-05-07T11:28:37;10.95;;;6.03;;
65469;SDS011;52067;50.710;14.492;2023-05-07T11:31:04;9.13;;;6.70;;
65469;SDS011;52067;50.710;14.492;2023-05-07T11:33:31;9.07;;;5.38;;
65469;SDS011;52067;50.710;14.492;2023-05-07T11:35:57;7.75;;;5.03;;
65469;SDS011;52067;50.710;14.492;2023-05-07T11:38:23;10.05;;;5.82;;
65469;SDS011;52067;50.710;14.492;2023-05-07T11:40:50;11.20;;;6.18;;
65469;SDS011;52067;50.710;14.492;2023-05-07T11:43:17;13.00;;;6.25;;
65469;SDS011;52067;50.710;14.492;2023-05-07T11:45:47;9.00;;;6.32;;
65469;SDS011;52067;50.710;14.492;2023-05-07T11:48:14;9.10;;;5.90;;
65469;SDS011;52067;50.710;14.492;2023-05-07T11:50:50;7.75;;;5.22;;
65469;SDS011;52067;50.710;14.492;2023-05-07T11:53:17;7.35;;;4.55;;
65469;SDS011;52067;50.710;14.492;2023-05-07T11:55:43;9.40;;;5.93;;
65469;SDS011;52067;50.710;14.492;2023-05-07T11:58:10;11.23;;;6.53;;
65469;SDS011;52067;50.710;14.492;2023-05-07T12:00:37;8.65;;;5.40;;
65469;SDS011;52067;50.710;14.492;2023-05-07T12:03:05;7.30;;;5.20;;
65469;SDS011;52067;50.710;14.492;2023-05-07T12:05:31;11.07;;;6.15;;
65469;SDS011;52067;50.710;14.492;2023-05-07T12:07:56;7.43;;;5.20;;
65469;SDS011;52067;50.710;14.492;2023-05-07T12:10:22;9.05;;;5.93;;
65469;SDS011;52067;50.710;14.492;2023-05-07T12:12:50;6.93;;;5.20;;
65469;SDS011;52067;50.710;14.492;2023-05-07T12:15:16;7.75;;;4.95;;
65469;SDS011;52067;50.710;14.492;2023-05-07T12:17:42;7.80;;;5.13;;
65469;SDS011;52067;50.710;14.492;2023-05-07T12:20:08;11.88;;;6.57;;
65469;SDS011;52067;50.710;14.492;2023-05-07T12:22:35;19.85;;;8.40;;
65469;SDS011;52067;50.710;14.492;2023-05-07T12:25:01;10.77;;;6.22;;
65469;SDS011;52067;50.710;14.492;2023-05-07T12:27:27;7.20;;;4.72;;
65469;SDS011;52067;50.710;14.492;2023-05-07T12:29:53;8.50;;;4.60;;
65469;SDS011;52067;50.710;14.492;2023-05-07T12:32:19;9.45;;;5.50;;
65469;SDS011;52067;50.710;14.492;2023-05-07T12:34:46;7.07;;;5.15;;
65469;SDS011;52067;50.710;14.492;2023-05-07T12:37:12;6.93;;;5.10;;
65469;SDS011;52067;50.710;14.492;2023-05-07T12:39:38;6.22;;;4.63;;
65469;SDS011;52067;50.710;14.492;2023-05-07T12:42:09;9.50;;;5.30;;
65469;SDS011;52067;50.710;14.492;2023-05-07T12:44:40;13.05;;;7.45;;
65469;SDS011;52067;50.710;14.492;2023-05-07T12:47:06;18.92;;;8.55;;
65469;SDS011;52067;50.710;14.492;2023-05-07T12:49:34;7.90;;;5.60;;
65469;SDS011;52067;50.710;14.492;2023-05-07T12:52:01;8.15;;;5.93;;
65469;SDS011;52067;50.710;14.492;2023-05-07T12:54:30;9.45;;;6.22;;
65469;SDS011;52067;50.710;14.492;2023-05-07T12:57:01;8.48;;;5.90;;
65469;SDS011;52067;50.710;14.492;2023-05-07T12:59:37;7.88;;;5.82;;
65469;SDS011;52067;50.710;14.492;2023-05-07T13:02:04;7.35;;;5.32;;
65469;SDS011;52067;50.710;14.492;2023-05-07T13:04:29;8.27;;;5.38;;
65469;SDS011;52067;50.710;14.492;2023-05-07T13:06:55;8.35;;;5.05;;
65469;SDS011;52067;50.710;14.492;2023-05-07T13:09:20;13.07;;;7.38;;
65469;SDS011;52067;50.710;14.492;2023-05-07T13:11:46;9.10;;;5.32;;
65469;SDS011;52067;50.710;14.492;2023-05-07T13:14:11;7.97;;;4.65;;
65469;SDS011;52067;50.710;14.492;2023-05-07T13:16:37;7.40;;;5.47;;
65469;SDS011;52067;50.710;14.492;2023-05-07T13:19:02;8.38;;;5.88;;
65469;SDS011;52067;50.710;14.492;2023-05-07T13:21:27;8.93;;;5.78;;
65469;SDS011;52067;50.710;14.492;2023-05-07T13:23:53;9.60;;;5.40;;
65469;SDS011;52067;50.710;14.492;2023-05-07T13:26:18;8.27;;;5.10;;
65469;SDS011;52067;50.710;14.492;2023-05-07T13:28:44;6.97;;;4.97;;
65469;SDS011;52067;50.710;14.492;2023-05-07T13:31:09;8.20;;;5.15;;
65469;SDS011;52067;50.710;14.492;2023-05-07T13:33:35;7.70;;;5.43;;
65469;SDS011;52067;50.710;14.492;2023-05-07T13:36:01;12.13;;;7.60;;
65469;SDS011;52067;50.710;14.492;2023-05-07T13:38:29;8.52;;;6.20;;
65469;SDS011;52067;50.710;14.492;2023-05-07T13:40:54;8.88;;;6.30;;
65469;SDS011;52067;50.710;14.492;2023-05-07T13:43:20;8.55;;;5.53;;
65469;SDS011;52067;50.710;14.492;2023-05-07T13:45:45;8.35;;;4.65;;
65469;SDS011;52067;50.710;14.492;2023-05-07T13:48:10;7.43;;;5.07;;
65469;SDS011;52067;50.710;14.492;2023-05-07T13:50:36;6.28;;;4.50;;
65469;SDS011;52067;50.710;14.492;2023-05-07T13:53:01;9.10;;;5.03;;
65469;SDS011;52067;50.710;14.492;2023-05-07T13:55:28;9.55;;;5.13;;
65469;SDS011;52067;50.710;14.492;2023-05-07T13:57:57;12.85;;;7.43;;
65469;SDS011;52067;50.710;14.492;2023-05-07T14:00:24;10.77;;;6.20;;
65469;SDS011;52067;50.710;14.492;2023-05-07T14:02:50;9.48;;;5.57;;
65469;SDS011;52067;50.710;14.492;2023-05-07T14:05:15;7.03;;;5.05;;
65469;SDS011;52067;50.710;14.492;2023-05-07T14:07:41;7.22;;;4.97;;
65469;SDS011;52067;50.710;14.492;2023-05-07T14:10:06;7.00;;;5.22;;
65469;SDS011;52067;50.710;14.492;2023-05-07T14:12:32;6.72;;;4.70;;
65469;SDS011;52067;50.710;14.492;2023-05-07T14:14:58;8.60;;;5.15;;
65469;SDS011;52067;50.710;14.492;2023-05-07T14:17:23;7.43;;;4.85;;
65469;SDS011;52067;50.710;14.492;2023-05-07T14:19:51;6.70;;;3.85;;
65469;SDS011;52067;50.710;14.492;2023-05-07T14:22:18;6.57;;;4.72;;
65469;SDS011;52067;50.710;14.492;2023-05-07T14:24:45;5.47;;;3.85;;
65469;SDS011;52067;50.710;14.492;2023-05-07T14:27:10;5.65;;;4.40;;
65469;SDS011;52067;50.710;14.492;2023-05-07T14:29:36;5.13;;;3.95;;
65469;SDS011;52067;50.710;14.492;2023-05-07T14:32:02;6.55;;;4.80;;
65469;SDS011;52067;50.710;14.492;2023-05-07T14:34:28;5.82;;;3.90;;
65469;SDS011;52067;50.710;14.492;2023-05-07T14:36:53;6.03;;;3.92;;
65469;SDS011;52067;50.710;14.492;2023-05-07T14:39:20;6.93;;;4.10;;